Vroman, Colorado
Current Conditions -  °F | °C
As of 6:53 AM on Monday 22 Dec 2014 (Local Time) from KLHX Reporting Station
Overcast Overcast  
Wind Chill: 33°   Ceiling: 10000
Heat Index: 39°   Visibility: 10mi
Dew Point: 26°   Wind: 9mph
Humidity: 60%   Direction: 310°NW
Pressure: 29.76"   Gusts: NA
Location:  37.9684°N, 103.774°W
Report Text: KLHX 221353Z AUTO 31008KT 10SM OVC100 04/M03 A2976 RMK AO2 SLP074 T00391033
Loading
Personal Weather Stations






























Interactive Weather Map New forecast layout! Learn more

10-Day Weather Forecast

Advertisements
Track Severe Weather on mobile